createdAt,value
2023-01-29T09:30:32.916Z,1.90
2023-01-29T09:33:02.203Z,2.00
2023-01-29T09:35:31.171Z,2.10
2023-01-29T09:38:00.283Z,2.20
2023-01-29T09:40:37.001Z,2.30
2023-01-29T09:43:12.082Z,2.40
2023-01-29T09:45:45.136Z,2.40
2023-01-29T09:48:15.038Z,2.50
2023-01-29T09:51:19.620Z,2.70
2023-01-29T09:53:53.644Z,2.80
2023-01-29T09:56:28.954Z,3.00
2023-01-29T09:59:01.529Z,2.70
2023-01-29T10:01:38.737Z,2.70
2023-01-29T10:04:53.556Z,2.70
2023-01-29T10:07:39.851Z,2.90
2023-01-29T10:10:35.481Z,3.10
2023-01-29T10:13:15.134Z,3.30
2023-01-29T10:16:09.432Z,3.40
2023-01-29T10:19:12.598Z,3.50
2023-01-29T10:22:07.737Z,3.40
2023-01-29T10:24:40.072Z,3.40
2023-01-29T10:27:16.006Z,3.30
2023-01-29T10:29:47.165Z,3.10
2023-01-29T10:32:19.214Z,3.20
2023-01-29T10:34:53.962Z,3.00
2023-01-29T10:37:25.273Z,3.20
2023-01-29T10:39:54.081Z,3.20
2023-01-29T10:42:32.356Z,3.20
2023-01-29T10:45:21.059Z,3.10
2023-01-29T10:48:09.488Z,3.00
2023-01-29T10:51:02.475Z,3.10
2023-01-29T10:53:53.884Z,3.30
2023-01-29T10:56:40.923Z,3.50
2023-01-29T10:59:20.632Z,3.40
2023-01-29T11:01:52.604Z,3.20
2023-01-29T11:04:22.167Z,3.40
2023-01-29T11:06:52.884Z,3.30
2023-01-29T11:12:47.920Z,3.10
2023-01-29T11:15:21.681Z,3.30
2023-01-29T11:18:10.965Z,3.20
2023-01-29T11:20:39.999Z,2.90
2023-01-29T11:24:21.354Z,3.00
2023-01-29T11:27:18.438Z,3.00
2023-01-29T11:30:17.965Z,3.10
2023-01-29T11:32:53.284Z,3.10
2023-01-29T11:35:22.776Z,2.90
2023-01-29T11:37:54.599Z,2.80
2023-01-29T11:40:56.002Z,2.90
2023-01-29T11:43:31.500Z,2.90
2023-01-29T11:46:07.024Z,2.90
2023-01-29T11:49:09.931Z,3.00
2023-01-29T11:51:54.715Z,3.10
2023-01-29T11:54:28.760Z,3.30
2023-01-29T11:57:00.005Z,3.20
2023-01-29T11:59:42.533Z,3.00
2023-01-29T12:02:29.793Z,3.00
2023-01-29T12:05:09.925Z,3.00
2023-01-29T12:07:43.842Z,3.20
2023-01-29T12:10:37.403Z,3.50
2023-01-29T12:17:12.013Z,3.70
2023-01-29T12:19:45.725Z,3.70
2023-01-29T12:22:22.817Z,3.50
2023-01-29T12:24:59.060Z,4.10
2023-01-29T12:27:41.294Z,5.40
2023-01-29T12:31:02.137Z,6.40
2023-01-29T12:33:42.593Z,7.20
2023-01-29T12:36:19.041Z,7.10
2023-01-29T12:38:48.208Z,6.80
2023-01-29T12:41:40.241Z,7.00
2023-01-29T12:44:15.843Z,6.80
2023-01-29T12:46:53.300Z,6.70
2023-01-29T12:49:26.642Z,6.50
2023-01-29T12:52:05.555Z,6.40
2023-01-29T12:54:39.681Z,7.10
2023-01-29T12:57:27.644Z,7.20
2023-01-29T13:00:07.162Z,7.80
2023-01-29T13:02:42.022Z,7.20
2023-01-29T13:05:34.045Z,7.70
2023-01-29T13:08:21.582Z,7.60
2023-01-29T13:11:38.308Z,7.30
2023-01-29T13:14:14.999Z,7.40
2023-01-29T13:17:15.401Z,7.80
2023-01-29T13:19:49.635Z,8.60
2023-01-29T13:22:39.204Z,9.10
2023-01-29T13:25:14.006Z,8.10
2023-01-29T13:28:22.087Z,7.90
2023-01-29T13:37:29.076Z,6.80
2023-01-29T13:40:23.124Z,7.10
2023-01-29T13:42:54.492Z,7.10
2023-01-29T13:45:26.113Z,6.70
2023-01-29T13:47:58.446Z,6.20
2023-01-29T13:50:38.884Z,5.30
2023-01-29T13:53:21.568Z,5.00
2023-01-29T13:56:45.458Z,4.90
2023-01-29T13:59:36.199Z,4.90
2023-01-29T14:02:34.881Z,5.00
2023-01-29T14:05:41.218Z,5.10
2023-01-29T14:08:47.691Z,4.90
2023-01-29T14:11:36.021Z,4.70
2023-01-29T14:17:33.320Z,4.70
2023-01-29T14:20:07.313Z,4.90
2023-01-29T14:22:36.409Z,4.90
2023-01-29T14:25:23.696Z,4.70
2023-01-29T14:27:52.754Z,4.40
2023-01-29T14:30:31.228Z,4.30
2023-01-29T14:33:02.323Z,4.30
2023-01-29T14:35:39.285Z,4.40
2023-01-29T14:38:09.018Z,4.40
2023-01-29T14:40:55.594Z,4.50
2023-01-29T14:43:24.480Z,4.70
2023-01-29T14:45:56.381Z,5.00
2023-01-29T14:48:48.848Z,5.10
2023-01-29T14:51:19.364Z,5.00
2023-01-29T14:53:58.880Z,4.90
2023-01-29T14:56:34.934Z,4.80
2023-01-29T14:59:59.645Z,4.80
2023-01-29T15:02:37.460Z,4.90
2023-01-29T15:05:28.332Z,5.00
2023-01-29T15:08:02.201Z,4.70
2023-01-29T15:10:41.903Z,4.50
2023-01-29T15:13:30.003Z,4.20
2023-01-29T15:16:16.222Z,3.80
2023-01-29T15:18:45.625Z,3.50
2023-01-29T15:21:15.928Z,3.30
2023-01-29T15:23:45.676Z,3.20
2023-01-29T15:26:19.749Z,2.90
2023-01-29T15:29:03.285Z,2.70
2023-01-29T15:31:33.650Z,2.50
2023-01-29T15:34:06.557Z,2.40
2023-01-29T15:36:40.052Z,2.20
2023-01-29T15:39:18.082Z,2.10
2023-01-29T15:41:56.524Z,2.00
2023-01-29T15:44:30.041Z,1.80
2023-01-29T15:47:02.620Z,1.70
2023-01-29T15:49:34.955Z,1.60
2023-01-29T15:52:07.802Z,1.50
2023-01-29T15:54:37.624Z,1.40
2023-01-29T15:57:07.405Z,1.20
2023-01-29T15:59:44.934Z,1.30
2023-01-29T16:02:40.432Z,1.00
2023-01-29T16:05:15.491Z,0.90
2023-01-29T16:07:45.562Z,0.80
2023-01-29T16:10:20.432Z,0.70
2023-01-29T16:12:52.701Z,0.60
2023-01-29T16:15:40.430Z,0.50
2023-01-29T16:18:22.962Z,0.40
2023-01-29T16:20:53.891Z,0.40
2023-01-29T16:23:27.841Z,0.30
2023-01-29T16:26:02.921Z,0.20
2023-01-29T16:28:32.432Z,0.10
2023-01-29T16:31:04.493Z,-0.10
2023-01-29T16:33:37.060Z,-0.20
2023-01-29T16:36:12.193Z,-0.20
2023-01-29T16:38:44.491Z,-0.10
2023-01-29T16:41:29.226Z,-0.30
2023-01-29T16:43:59.768Z,-0.40
2023-01-29T16:46:36.031Z,-0.50
2023-01-29T16:49:21.831Z,-0.50
2023-01-29T16:51:50.561Z,-0.40
2023-01-29T16:54:23.845Z,-0.60
2023-01-29T16:56:56.033Z,-0.60
2023-01-29T16:59:33.121Z,-0.70
2023-01-29T17:02:03.961Z,-0.70
2023-01-29T17:04:32.874Z,-0.80
2023-01-29T17:07:03.884Z,-0.80
2023-01-29T17:09:35.524Z,-0.80
2023-01-29T17:12:07.572Z,-0.90
2023-01-29T17:14:38.884Z,-1.00
2023-01-29T17:17:16.270Z,-1.10
2023-01-29T17:19:45.233Z,-1.10
2023-01-29T17:22:15.102Z,-1.10
2023-01-29T17:24:47.037Z,-1.10
2023-01-29T17:27:23.056Z,-1.10
2023-01-29T17:30:00.425Z,-1.20
2023-01-29T17:32:43.990Z,-1.20
2023-01-29T17:35:29.204Z,-1.40
2023-01-29T18:18:03.001Z,-1.40
2023-01-29T18:20:36.734Z,-1.50
2023-01-29T18:23:06.814Z,-1.40
2023-01-29T18:25:35.778Z,-1.50
2023-01-29T18:28:04.992Z,-1.50
2023-01-29T18:30:34.024Z,-1.50
2023-01-29T18:33:04.022Z,-1.50
2023-01-29T18:35:32.509Z,-1.50
2023-01-29T18:38:01.072Z,-1.50
2023-01-29T18:40:29.942Z,-1.50
2023-01-29T18:43:00.939Z,-1.50
2023-01-29T18:45:29.897Z,-1.50
2023-01-29T18:47:58.873Z,-1.60
2023-01-29T18:50:29.207Z,-1.60
2023-01-29T18:52:57.847Z,-1.60
2023-01-29T18:55:27.123Z,-1.60
2023-01-29T18:58:28.537Z,-1.70
2023-01-29T19:00:44.473Z,-1.60
2023-01-29T19:03:12.955Z,-1.70
2023-01-29T19:05:42.791Z,-1.70
2023-01-29T19:08:11.606Z,-1.80
2023-01-29T19:10:40.657Z,-1.80
2023-01-29T19:13:09.943Z,-1.90
2023-01-29T19:15:38.424Z,-1.90
2023-01-29T19:18:07.029Z,-2.00
2023-01-29T19:20:35.487Z,-2.00
2023-01-29T19:23:05.354Z,-2.00
2023-01-29T19:25:37.247Z,-2.00
